Time;durP1;ratioP1;P1;durP2;ratioP2;P2;SDS_P1;SDS_P2;PMS_P1;PMS_P2;Temp;Humidity;BMP_temperature;BMP_pressure;BME280_temperature;BME280_humidity;BME280_pressure;Samples;Min_cycle;Max_cycle;Signal;HPM_P1;HPM_P2
2021/09/06 00:00:42;;;;;;;25.38;20.45;;;;;;;27.63;43.32;101994.66;4992177;28;20034;-78
2021/09/06 00:03:08;;;;;;;30.23;21.15;;;;;;;27.58;43.39;101998.69;4992195;28;20511;-88
2021/09/06 00:05:34;;;;;;;31.20;20.88;;;;;;;27.51;43.47;101993.06;4991368;28;20114;-78
2021/09/06 00:08:00;;;;;;;27.60;21.50;;;;;;;27.53;43.48;101996.25;4992240;28;20079;-79
2021/09/06 00:10:41;;;;;;;27.60;21.35;;;;;;;27.52;43.34;102005.09;4992090;28;20109;-80
2021/09/06 00:13:08;;;;;;;33.97;21.70;;;;;;;27.51;43.58;102003.47;4992104;28;20037;-78
2021/09/06 00:15:35;;;;;;;26.08;20.10;;;;;;;27.52;43.49;102002.28;4992174;28;20068;-78
2021/09/06 00:18:02;;;;;;;25.55;19.00;;;;;;;27.54;43.50;102000.66;4991962;28;20029;-79
2021/09/06 00:20:28;;;;;;;27.42;19.67;;;;;;;27.53;43.57;102004.69;4992145;28;20451;-89
2021/09/06 00:22:54;;;;;;;27.27;20.40;;;;;;;27.57;43.38;102004.66;4991903;28;20110;-78
2021/09/06 00:25:20;;;;;;;31.45;19.73;;;;;;;27.56;43.38;102001.06;4991993;28;20050;-78
2021/09/06 00:27:47;;;;;;;35.15;19.88;;;;;;;27.55;43.47;102007.88;4991661;28;20038;-78
2021/09/06 00:30:13;;;;;;;27.77;19.92;;;;;;;27.54;43.50;101997.84;4991567;28;20037;-84
2021/09/06 00:32:38;;;;;;;26.58;18.95;;;;;;;27.58;43.36;101992.22;4991677;28;20515;-78
2021/09/06 00:35:05;;;;;;;24.35;19.35;;;;;;;27.59;43.54;101996.66;4991731;28;20028;-88
2021/09/06 00:37:30;;;;;;;27.98;20.27;;;;;;;27.57;43.29;101999.84;4991505;28;20027;-78
2021/09/06 00:39:56;;;;;;;27.17;19.27;;;;;;;27.59;43.31;102003.09;4991575;28;20038;-78
2021/09/06 00:42:21;;;;;;;24.60;18.92;;;;;;;27.59;43.36;102000.28;4991498;28;20447;-78
2021/09/06 00:44:47;;;;;;;26.80;20.05;;;;;;;27.53;43.42;101993.44;4990174;28;20026;-78
2021/09/06 00:47:13;;;;;;;27.00;20.23;;;;;;;27.63;43.40;101991.84;5022706;28;20031;-78
2021/09/06 00:49:39;;;;;;;24.80;18.85;;;;;;;27.64;43.21;101991.44;4991402;28;20038;-78
2021/09/06 00:52:05;;;;;;;24.63;19.55;;;;;;;27.66;43.18;101996.69;4990329;28;20038;-89
2021/09/06 00:54:31;;;;;;;22.90;16.75;;;;;;;27.62;43.38;101993.84;4991509;28;20099;-88
2021/09/06 00:56:56;;;;;;;25.90;17.65;;;;;;;27.61;43.18;101991.44;5022656;28;20040;-85
2021/09/06 00:59:22;;;;;;;23.17;18.52;;;;;;;27.60;43.18;101992.66;4991383;28;20109;-78
2021/09/06 01:01:48;;;;;;;22.73;17.85;;;;;;;27.61;43.16;101988.63;4991296;28;20102;-78
2021/09/06 01:04:13;;;;;;;24.25;17.55;;;;;;;27.56;43.57;101989.03;4991359;28;20035;-78
2021/09/06 01:06:39;;;;;;;23.17;17.10;;;;;;;27.61;43.38;101991.44;4991130;28;20546;-78
2021/09/06 01:09:04;;;;;;;22.13;17.05;;;;;;;27.59;43.21;101986.25;4990101;28;20026;-78
2021/09/06 01:11:30;;;;;;;19.90;15.68;;;;;;;27.59;43.05;101986.25;4991056;28;20089;-79
2021/09/06 01:13:58;;;;;;;22.02;16.30;;;;;;;27.56;43.22;101975.78;4991299;28;20051;-88
2021/09/06 01:16:24;;;;;;;21.63;16.52;;;;;;;27.56;43.29;101970.19;4990949;28;20080;-78
2021/09/06 01:18:50;;;;;;;23.58;16.80;;;;;;;27.52;43.30;101975.00;4991232;28;20030;-78
2021/09/06 01:21:16;;;;;;;20.00;14.60;;;;;;;27.55;43.08;101982.63;4989620;28;20415;-78
2021/09/06 01:23:42;;;;;;;21.75;16.98;;;;;;;27.55;43.08;101985.41;4991041;28;20027;-78
2021/09/06 01:26:09;;;;;;;21.33;15.45;;;;;;;27.49;43.01;101984.22;4990831;28;20129;-78
2021/09/06 01:28:34;;;;;;;19.65;15.70;;;;;;;27.52;42.97;101980.63;4990744;28;20084;-78
2021/09/06 01:31:01;;;;;;;20.92;16.35;;;;;;;27.17;43.66;101984.16;4990901;28;20038;-79
2021/09/06 01:33:27;;;;;;;19.77;14.98;;;;;;;27.33;43.37;101984.59;4990827;28;20137;-80
2021/09/06 01:35:53;;;;;;;21.08;15.68;;;;;;;27.26;43.55;101983.78;4990876;28;20058;-78
2021/09/06 01:38:18;;;;;;;19.33;15.18;;;;;;;27.26;43.61;101983.78;4990789;28;20105;-78
2021/09/06 01:40:44;;;;;;;18.73;15.43;;;;;;;27.31;43.57;101983.41;4990937;28;20030;-78
2021/09/06 01:43:10;;;;;;;19.58;14.68;;;;;;;27.34;43.33;101980.56;4991028;28;20069;-78
2021/09/06 01:45:35;;;;;;;18.60;15.13;;;;;;;27.32;43.55;101988.59;4990838;28;20088;-89
2021/09/06 01:48:01;;;;;;;20.70;14.45;;;;;;;27.32;43.63;101985.00;4990967;28;20056;-89
2021/09/06 01:50:26;;;;;;;17.88;14.52;;;;;;;27.30;43.25;101985.41;4990600;28;20030;-78
2021/09/06 01:52:52;;;;;;;19.75;16.60;;;;;;;27.37;43.30;101979.00;4990586;28;20037;-78
2021/09/06 01:55:17;;;;;;;20.02;15.90;;;;;;;27.35;43.36;101979.38;4990575;28;20106;-78
2021/09/06 01:57:43;;;;;;;21.83;16.40;;;;;;;27.35;43.14;101992.59;4990924;28;20034;-78
2021/09/06 02:00:09;;;;;;;20.17;14.85;;;;;;;27.37;43.31;101995.84;4990643;28;20039;-78
2021/09/06 02:02:35;;;;;;;20.95;15.60;;;;;;;27.35;43.06;101987.78;4990758;28;20038;-78
2021/09/06 02:05:01;;;;;;;24.38;17.33;;;;;;;27.37;43.20;101976.19;4990885;28;20106;-78
2021/09/06 02:07:26;;;;;;;21.95;14.90;;;;;;;27.33;43.14;101978.97;4990402;28;20038;-78
2021/09/06 02:09:52;;;;;;;22.85;15.82;;;;;;;27.31;43.01;101986.19;4990725;28;20037;-87
2021/09/06 02:12:18;;;;;;;20.13;15.20;;;;;;;27.27;43.30;101991.78;4990409;28;20035;-78
2021/09/06 02:14:44;;;;;;;21.65;15.88;;;;;;;27.30;43.32;101993.03;4990153;28;20071;-78
2021/09/06 02:17:10;;;;;;;23.23;16.30;;;;;;;27.34;43.04;101982.59;4989389;28;20426;-78
2021/09/06 02:19:35;;;;;;;21.10;15.52;;;;;;;27.31;43.10;101987.00;4988956;28;20041;-78
2021/09/06 02:22:01;;;;;;;22.45;15.15;;;;;;;27.30;43.27;101993.03;4988990;28;20057;-78
2021/09/06 02:24:28;;;;;;;23.42;16.30;;;;;;;27.28;43.15;101992.59;5021040;28;20054;-79
2021/09/06 02:26:54;;;;;;;21.77;15.60;;;;;;;27.27;43.01;101991.00;4987894;28;20519;-78
2021/09/06 02:29:20;;;;;;;21.75;16.58;;;;;;;27.34;42.93;101989.00;4990877;28;20030;-78
2021/09/06 02:31:45;;;;;;;20.17;15.80;;;;;;;27.30;42.93;101985.41;4993766;28;20039;-78
2021/09/06 02:34:11;;;;;;;24.30;17.42;;;;;;;27.14;43.28;101982.16;4993255;28;20522;-78
2021/09/06 02:36:37;;;;;;;24.35;16.38;;;;;;;27.20;43.19;101974.94;4993678;28;20058;-87
2021/09/06 02:39:03;;;;;;;25.45;19.00;;;;;;;27.14;43.27;101984.97;4993488;28;20518;-78
2021/09/06 02:41:29;;;;;;;22.75;16.13;;;;;;;27.10;43.08;101976.53;5024764;28;20027;-78
2021/09/06 02:43:55;;;;;;;21.63;17.63;;;;;;;27.07;43.28;101977.34;4993737;28;20088;-78
2021/09/06 02:48:56;;;;;;;22.63;17.08;;;;;;;26.96;43.27;101970.84;5201807;23;20048;-78
2021/09/06 02:51:21;;;;;;;31.55;18.58;;;;;;;26.92;43.46;101978.47;5091425;28;20090;-77
2021/09/06 02:53:47;;;;;;;26.45;18.33;;;;;;;26.90;43.18;101978.03;5075078;28;20040;-77
2021/09/06 02:56:13;;;;;;;29.42;19.08;;;;;;;26.99;43.30;101978.47;5075449;28;20086;-77
2021/09/06 02:58:38;;;;;;;29.30;19.73;;;;;;;26.88;43.30;101983.25;5075371;28;20052;-78
2021/09/06 03:01:04;;;;;;;25.05;18.63;;;;;;;26.81;43.45;101977.59;5075254;28;20036;-83
2021/09/06 03:03:30;;;;;;;35.03;20.60;;;;;;;26.68;43.97;101973.56;5091167;28;20029;-77
2021/09/06 03:05:56;;;;;;;27.13;19.42;;;;;;;26.68;43.91;101970.78;5090862;28;20115;-80
2021/09/06 03:08:22;;;;;;;25.27;18.27;;;;;;;26.80;43.56;101974.00;5075428;28;20077;-78
2021/09/06 03:10:47;;;;;;;26.30;18.98;;;;;;;26.72;43.73;101965.97;5090917;28;20028;-77
2021/09/06 03:13:13;;;;;;;30.77;21.05;;;;;;;26.66;43.60;101978.75;5057786;28;20097;-77
2021/09/06 03:15:38;;;;;;;26.17;18.15;;;;;;;26.58;44.17;101985.53;5075616;28;20068;-77
2021/09/06 03:18:04;;;;;;;27.58;19.92;;;;;;;26.52;44.08;101987.88;5075630;28;20475;-84
2021/09/06 03:20:29;;;;;;;34.25;19.92;;;;;;;26.46;44.29;101986.69;5057795;28;20104;-77
2021/09/06 03:22:55;;;;;;;29.63;20.40;;;;;;;26.43;44.47;101982.63;5091220;28;20039;-85
2021/09/06 03:25:21;;;;;;;28.92;20.08;;;;;;;26.42;44.31;101978.22;5075346;28;20443;-78
2021/09/06 03:27:46;;;;;;;27.77;21.45;;;;;;;26.35;44.45;101977.34;5075694;28;20459;-85
2021/09/06 03:30:12;;;;;;;26.35;19.98;;;;;;;26.27;44.55;101973.72;5075413;28;20466;-78
2021/09/06 03:32:38;;;;;;;28.67;20.75;;;;;;;26.23;44.72;101982.13;5075313;28;20044;-76
2021/09/06 03:35:04;;;;;;;28.17;19.17;;;;;;;26.18;44.81;101981.66;5075338;28;20032;-85
2021/09/06 03:37:29;;;;;;;29.40;20.90;;;;;;;26.10;44.76;101980.81;5090772;28;20020;-83
2021/09/06 03:39:55;;;;;;;30.33;19.60;;;;;;;26.11;44.85;101979.63;5074360;28;20020;-84
2021/09/06 03:42:20;;;;;;;25.75;19.88;;;;;;;26.12;44.74;101984.03;5074432;28;20501;-77
2021/09/06 03:44:46;;;;;;;27.65;20.13;;;;;;;26.12;44.99;101984.03;5074880;28;20109;-77
2021/09/06 03:47:11;;;;;;;32.45;19.90;;;;;;;26.10;44.91;101982.81;5074682;28;20048;-85
2021/09/06 03:49:37;;;;;;;28.27;20.38;;;;;;;26.13;44.59;101982.03;5074985;28;20025;-77
2021/09/06 03:52:03;;;;;;;34.72;22.65;;;;;;;26.16;44.44;101984.88;5074832;28;20107;-84
2021/09/06 03:54:28;;;;;;;29.27;22.20;;;;;;;26.04;44.87;101989.97;5074848;28;20379;-84
2021/09/06 03:56:54;;;;;;;26.92;19.77;;;;;;;25.97;44.85;101982.31;5074840;28;20021;-78
2021/09/06 03:59:19;;;;;;;33.53;23.17;;;;;;;25.88;45.12;101979.84;5074790;28;20036;-81
2021/09/06 04:01:46;;;;;;;35.22;24.98;;;;;;;25.72;45.67;101988.53;5074794;28;20074;-78
2021/09/06 04:04:12;;;;;;;32.80;22.98;;;;;;;25.77;45.56;101978.16;5074880;28;20029;-78
2021/09/06 04:06:37;;;;;;;33.83;23.10;;;;;;;25.77;45.40;101981.78;5074682;28;20495;-85
2021/09/06 04:09:03;;;;;;;36.28;24.25;;;;;;;25.60;46.15;101985.19;5074954;28;20047;-84
2021/09/06 04:11:29;;;;;;;38.17;24.67;;;;;;;25.68;45.90;101984.06;5074626;28;20032;-78
2021/09/06 04:13:54;;;;;;;32.28;23.00;;;;;;;25.79;45.29;101984.19;5090164;28;20498;-78
2021/09/06 04:16:20;;;;;;;35.28;23.85;;;;;;;25.76;45.67;101987.75;5074531;28;20021;-78
2021/09/06 04:18:46;;;;;;;34.35;23.25;;;;;;;25.85;45.47;101991.03;5074903;28;20363;-78
2021/09/06 04:21:12;;;;;;;38.40;25.63;;;;;;;25.78;45.77;101993.78;5074327;28;20024;-78
2021/09/06 04:23:39;;;;;;;33.33;25.67;;;;;;;25.85;45.53;101980.66;5074309;28;20405;-85
2021/09/06 04:26:05;;;;;;;39.83;26.08;;;;;;;25.84;45.35;101981.81;5074043;28;20021;-85
2021/09/06 04:28:30;;;;;;;41.33;26.65;;;;;;;25.87;45.53;101978.25;5089645;28;20541;-81
2021/09/06 04:30:56;;;;;;;40.47;25.90;;;;;;;25.73;46.04;101981.75;5074255;28;20060;-78
2021/09/06 04:33:23;;;;;;;39.05;24.50;;;;;;;25.82;45.58;101989.00;5074060;28;20379;-77
2021/09/06 04:35:48;;;;;;;38.92;25.63;;;;;;;25.80;45.73;101981.00;5073981;28;20021;-79
2021/09/06 04:38:14;;;;;;;44.63;27.70;;;;;;;25.73;45.84;101987.34;5073840;28;20025;-86
2021/09/06 04:40:40;;;;;;;35.30;24.77;;;;;;;25.73;45.80;101984.53;5073979;28;20143;-79
2021/09/06 04:43:05;;;;;;;43.58;25.58;;;;;;;25.70;45.89;101987.28;5089543;28;20041;-85
2021/09/06 04:45:31;;;;;;;43.83;26.95;;;;;;;25.71;45.77;101992.53;5089739;28;20033;-77
2021/09/06 04:47:57;;;;;;;43.42;27.42;;;;;;;25.62;45.99;101982.81;5055633;28;20040;-85
2021/09/06 04:50:22;;;;;;;37.90;26.67;;;;;;;25.51;46.43;101993.09;5073888;28;20028;-78
2021/09/06 04:52:48;;;;;;;42.67;25.52;;;;;;;25.45;46.74;101993.44;5073137;28;20063;-84
2021/09/06 04:55:13;;;;;;;39.83;25.60;;;;;;;25.49;46.44;101995.47;5074052;28;20059;-78
2021/09/06 04:57:39;;;;;;;40.40;26.10;;;;;;;25.45;46.44;101990.63;5073781;28;20028;-78
2021/09/06 05:00:05;;;;;;;36.30;26.45;;;;;;;25.55;46.01;101989.16;5089338;28;20031;-85
2021/09/06 05:02:31;;;;;;;42.70;27.05;;;;;;;25.55;46.33;101996.75;5055765;28;20020;-84
2021/09/06 05:04:56;;;;;;;39.33;24.65;;;;;;;25.50;46.14;101992.28;5073583;28;20121;-79
2021/09/06 05:07:22;;;;;;;42.97;27.73;;;;;;;25.49;46.55;102001.88;5089224;28;20134;-77
2021/09/06 05:09:47;;;;;;;41.40;26.15;;;;;;;25.49;46.37;101998.28;5088723;28;20372;-77
2021/09/06 05:12:13;;;;;;;43.00;26.80;;;;;;;25.48;46.36;101994.69;5088886;28;20489;-77
2021/09/06 05:14:38;;;;;;;39.70;26.42;;;;;;;25.45;46.37;101999.03;5073418;28;20021;-77
2021/09/06 05:17:04;;;;;;;39.40;26.00;;;;;;;25.44;46.55;102013.41;5073329;28;20056;-84
2021/09/06 05:19:30;;;;;;;45.22;25.48;;;;;;;25.43;46.16;102001.41;5073182;28;20028;-77
2021/09/06 05:21:55;;;;;;;43.45;27.70;;;;;;;25.29;46.73;102006.88;5073092;28;20522;-78
2021/09/06 05:24:21;;;;;;;41.45;26.92;;;;;;;25.33;46.52;102013.31;5073109;28;20090;-84
2021/09/06 05:26:46;;;;;;;44.47;28.50;;;;;;;25.41;46.59;102014.19;5088595;28;20028;-76
2021/09/06 05:29:12;;;;;;;40.78;28.08;;;;;;;25.36;46.69;102020.94;5088563;28;20029;-77
2021/09/06 05:31:37;;;;;;;44.75;27.70;;;;;;;25.36;47.01;102025.72;5072920;28;20097;-78
2021/09/06 05:34:03;;;;;;;40.53;25.60;;;;;;;25.40;46.99;102029.38;5073141;28;20031;-78
2021/09/06 05:36:28;;;;;;;41.58;26.38;;;;;;;25.51;46.62;102021.09;5073223;28;20060;-77
2021/09/06 05:38:54;;;;;;;41.20;26.77;;;;;;;25.45;47.02;102026.22;5073137;28;20478;-78
2021/09/06 05:41:20;;;;;;;44.75;26.23;;;;;;;25.55;46.70;102027.53;5072929;28;20020;-79
2021/09/06 05:43:50;;;;;;;41.08;25.38;;;;;;;25.48;47.08;102025.47;5055036;28;20036;-78
2021/09/06 05:46:16;;;;;;;42.17;26.38;;;;;;;25.39;47.37;102033.34;5088487;28;20504;-78
2021/09/06 05:48:41;;;;;;;49.83;28.27;;;;;;;25.46;46.93;102028.63;5072562;28;20048;-77
2021/09/06 05:51:07;;;;;;;35.28;24.00;;;;;;;25.52;47.13;102031.06;5072539;28;20048;-77
2021/09/06 05:53:32;;;;;;;36.97;24.35;;;;;;;25.42;47.71;102029.78;5088009;28;20475;-84
2021/09/06 05:55:58;;;;;;;36.45;24.00;;;;;;;25.55;47.19;102028.34;5088334;28;20052;-76
2021/09/06 05:58:23;;;;;;;44.42;25.20;;;;;;;25.66;46.95;102023.63;5072582;28;20070;-77
2021/09/06 06:00:49;;;;;;;39.20;25.63;;;;;;;25.75;46.59;102030.94;5088160;28;20036;-76
2021/09/06 06:03:15;;;;;;;41.30;25.33;;;;;;;25.71;46.88;102014.91;5088290;28;20028;-80
2021/09/06 06:05:40;;;;;;;36.13;25.30;;;;;;;25.66;46.86;102029.22;5077142;28;20025;-80
2021/09/06 06:08:06;;;;;;;37.90;24.42;;;;;;;25.59;47.12;102039.56;5076756;28;20131;-80
2021/09/06 06:10:31;;;;;;;36.83;24.88;;;;;;;25.72;47.08;102029.72;5076508;28;20469;-82
2021/09/06 06:12:57;;;;;;;37.75;23.58;;;;;;;25.76;46.66;102032.53;5093015;28;20029;-80
2021/09/06 06:15:22;;;;;;;33.58;23.73;;;;;;;25.85;46.36;102031.03;5076657;28;20029;-84
2021/09/06 06:17:48;;;;;;;34.60;23.33;;;;;;;25.85;46.73;102024.63;5076633;28;20048;-80
2021/09/06 06:20:14;;;;;;;35.65;23.05;;;;;;;25.84;46.73;102025.81;5076689;28;20036;-81
2021/09/06 06:22:39;;;;;;;44.78;22.55;;;;;;;25.90;46.35;102027.88;5076707;28;20047;-83
2021/09/06 06:25:05;;;;;;;35.42;22.35;;;;;;;25.86;46.73;102029.84;5076792;28;20028;-76
2021/09/06 06:27:31;;;;;;;29.48;21.17;;;;;;;25.98;46.30;102034.31;5075882;28;20035;-75
2021/09/06 06:29:57;;;;;;;35.53;23.17;;;;;;;25.98;46.35;102031.53;5058391;28;20028;-77
2021/09/06 06:32:22;;;;;;;31.30;21.92;;;;;;;26.08;46.43;102021.63;5058651;28;20511;-75
2021/09/06 06:34:48;;;;;;;33.78;22.27;;;;;;;26.08;46.25;102027.22;5058940;28;20029;-75
2021/09/06 06:37:13;;;;;;;32.67;22.08;;;;;;;26.09;46.35;102040.84;5076541;28;20394;-78
2021/09/06 06:39:39;;;;;;;30.27;21.83;;;;;;;26.07;46.76;102037.63;5076486;28;20391;-77
2021/09/06 06:42:04;;;;;;;32.35;22.40;;;;;;;26.10;46.53;102027.63;5076479;28;20116;-85
2021/09/06 06:44:30;;;;;;;31.13;20.92;;;;;;;26.19;46.37;102034.50;5076330;28;20077;-75
2021/09/06 06:46:56;;;;;;;32.40;22.55;;;;;;;26.18;46.74;102043.28;5076264;28;20039;-86
2021/09/06 06:49:22;;;;;;;31.42;22.27;;;;;;;26.20;46.73;102040.91;5058474;28;20029;-79
2021/09/06 06:51:47;;;;;;;41.45;21.83;;;;;;;26.23;46.82;102051.34;5076333;28;20444;-77
2021/09/06 06:54:13;;;;;;;39.30;22.80;;;;;;;26.31;46.53;102041.00;5076088;28;20078;-88
2021/09/06 06:56:38;;;;;;;32.00;21.17;;;;;;;26.33;46.44;102047.00;5076113;28;20466;-86
2021/09/06 06:59:04;;;;;;;35.95;22.85;;;;;;;26.39;46.32;102054.69;5076313;28;20033;-79
2021/09/06 07:01:30;;;;;;;40.22;22.42;;;;;;;26.37;46.53;102057.03;5076686;28;20390;-76
2021/09/06 07:03:56;;;;;;;38.95;23.33;;;;;;;26.44;46.43;102054.31;5076163;28;20422;-76
2021/09/06 07:06:22;;;;;;;31.75;20.52;;;;;;;26.53;46.44;102051.97;5076189;28;20077;-81
2021/09/06 07:08:47;;;;;;;29.70;19.40;;;;;;;26.66;45.92;102058.03;5076659;28;20465;-85
2021/09/06 07:11:13;;;;;;;26.85;19.92;;;;;;;26.75;45.62;102064.13;5075841;28;20059;-77
2021/09/06 07:13:38;;;;;;;29.83;20.77;;;;;;;26.44;46.63;102064.72;5073155;28;20098;-81
2021/09/06 07:16:04;;;;;;;28.35;20.25;;;;;;;26.56;46.10;102058.78;5073852;28;20032;-88
2021/09/06 07:18:30;;;;;;;29.80;21.42;;;;;;;26.64;46.05;102068.84;5076047;28;20050;-76
2021/09/06 07:20:55;;;;;;;30.02;19.75;;;;;;;26.63;46.02;102070.03;5075297;28;20066;-75
2021/09/06 07:23:21;;;;;;;28.20;19.92;;;;;;;26.55;46.42;102076.81;5075678;28;20036;-75
2021/09/06 07:25:46;;;;;;;35.78;20.90;;;;;;;26.67;46.06;102078.47;5074738;28;20032;-84
2021/09/06 07:28:12;;;;;;;28.67;19.60;;;;;;;26.76;45.69;102090.16;5059301;28;20109;-75
2021/09/06 07:30:38;;;;;;;32.15;20.73;;;;;;;26.87;45.56;102087.41;5058794;28;20683;-75
2021/09/06 07:33:06;;;;;;;25.45;19.25;;;;;;;26.75;45.95;102085.72;5059017;28;20029;-75
2021/09/06 07:35:32;;;;;;;30.50;19.20;;;;;;;26.83;45.79;102084.59;5058670;28;20471;-75
2021/09/06 07:37:58;;;;;;;37.63;20.50;;;;;;;27.00;45.45;102097.09;5057330;28;20033;-75
2021/09/06 07:40:23;;;;;;;26.92;19.33;;;;;;;27.12;45.49;102095.94;5057923;28;20621;-76
2021/09/06 07:42:49;;;;;;;29.92;18.75;;;;;;;27.25;45.31;102086.78;5058438;28;20032;-75
2021/09/06 07:45:15;;;;;;;25.95;18.30;;;;;;;27.34;45.26;102080.81;5057026;28;20024;-75
2021/09/06 07:47:40;;;;;;;24.80;19.00;;;;;;;27.37;45.19;102088.44;5056039;28;20419;-75
2021/09/06 07:50:09;;;;;;;27.52;18.23;;;;;;;27.43;44.94;102089.66;5056579;28;20029;-75
2021/09/06 07:52:35;;;;;;;28.38;19.50;;;;;;;27.57;44.78;102094.50;5058183;28;20029;-75
2021/09/06 07:55:05;;;;;;;23.73;17.92;;;;;;;27.56;44.62;102099.31;5059204;28;20029;-75
2021/09/06 07:57:31;;;;;;;;;;;;;;;27.59;44.39;102095.72;5059207;28;20547;-75
2021/09/06 07:59:56;;;;;;;21.92;16.95;;;;;;;27.83;44.03;102099.81;5058569;28;19916;-75
2021/09/06 08:02:22;;;;;;;21.98;16.33;;;;;;;27.92;43.71;102105.03;5059240;28;20129;-77
2021/09/06 08:04:48;;;;;;;30.52;19.20;;;;;;;28.07;43.46;102105.84;5059704;28;20012;-76
2021/09/06 08:07:13;;;;;;;24.38;17.33;;;;;;;28.14;43.33;102112.25;5058555;28;20067;-75
2021/09/06 08:09:39;;;;;;;36.10;19.35;;;;;;;28.06;43.68;102113.47;5040520;28;20081;-76
2021/09/06 08:12:06;;;;;;;26.30;17.70;;;;;;;28.28;43.09;102116.28;5058279;28;20024;-82
2021/09/06 08:14:31;;;;;;;26.08;18.55;;;;;;;28.38;42.90;102116.31;5059191;28;20874;-75
2021/09/06 08:16:57;;;;;;;28.85;18.98;;;;;;;28.48;43.00;102120.28;5058921;28;20031;-84
2021/09/06 08:19:23;;;;;;;23.48;16.25;;;;;;;28.51;42.96;102124.34;5058649;28;20021;-75
2021/09/06 08:21:48;;;;;;;25.25;18.60;;;;;;;28.61;42.87;102129.94;5058014;28;20075;-75
2021/09/06 08:24:14;;;;;;;21.88;16.83;;;;;;;28.51;42.83;102124.34;5058383;28;20036;-76
2021/09/06 08:26:41;;;;;;;23.63;17.50;;;;;;;28.63;42.76;102121.88;5057870;28;20490;-75
2021/09/06 08:29:06;;;;;;;23.58;16.83;;;;;;;28.27;43.29;102126.72;5057397;28;20080;-73
2021/09/06 08:31:32;;;;;;;22.63;16.75;;;;;;;28.17;43.35;102121.88;5058517;28;20438;-77
2021/09/06 08:33:58;;;;;;;23.52;17.52;;;;;;;28.58;42.30;102118.69;5058052;28;20020;-75
2021/09/06 08:36:24;;;;;;;22.10;17.02;;;;;;;28.75;42.10;102123.47;5058602;28;20104;-75
2021/09/06 08:38:51;;;;;;;24.00;16.60;;;;;;;28.63;42.24;102124.69;5062320;28;20505;-76
2021/09/06 08:41:16;;;;;;;24.52;17.48;;;;;;;28.29;42.84;102121.50;5073296;28;20024;-75
2021/09/06 08:43:42;;;;;;;23.27;17.58;;;;;;;28.54;42.37;102120.69;5073751;28;20028;-85
2021/09/06 08:46:08;;;;;;;25.77;17.08;;;;;;;28.61;42.43;102121.50;5056606;28;20031;-75
2021/09/06 08:48:34;;;;;;;19.92;16.90;;;;;;;28.55;42.43;102133.53;5055939;28;20037;-74
2021/09/06 08:51:00;;;;;;;20.42;15.98;;;;;;;28.80;41.72;102133.53;5073125;28;20082;-75
2021/09/06 08:53:26;;;;;;;27.00;17.45;;;;;;;28.82;41.73;102139.53;5071414;28;20035;-75
2021/09/06 08:55:55;;;;;;;22.27;17.02;;;;;;;28.86;41.22;102141.13;5071643;28;20538;-75
2021/09/06 08:58:21;;;;;;;22.13;16.80;;;;;;;29.02;41.30;102140.72;5071510;28;20028;-75
2021/09/06 09:00:50;;;;;;;19.23;16.13;;;;;;;29.01;41.21;102139.91;5070504;28;20510;-76
2021/09/06 09:03:16;;;;;;;24.00;16.13;;;;;;;28.97;41.45;102144.75;5071176;28;20082;-74
2021/09/06 09:06:02;;;;;;;23.05;17.55;;;;;;;28.46;41.94;102145.22;5053197;28;20123;-75
2021/09/06 09:08:29;;;;;;;20.90;15.95;;;;;;;28.85;41.56;102149.97;5050472;28;20115;-76
2021/09/06 09:11:06;;;;;;;23.65;17.75;;;;;;;28.45;42.20;102149.22;5056105;28;20022;-86
2021/09/06 09:13:34;;;;;;;21.77;17.10;;;;;;;28.92;41.00;102147.97;5072996;28;20032;-76
2021/09/06 09:16:01;;;;;;;24.92;17.13;;;;;;;28.96;40.98;102157.22;5053423;28;20020;-75
2021/09/06 09:18:33;;;;;;;24.55;18.35;;;;;;;28.90;41.30;102161.66;5071682;28;20477;-85
2021/09/06 09:21:07;;;;;;;24.15;17.10;;;;;;;29.10;40.67;102164.81;5054884;28;20619;-75
2021/09/06 09:23:43;;;;;;;23.92;18.70;;;;;;;29.18;41.00;102159.97;5072731;28;20020;-75
2021/09/06 09:26:09;;;;;;;24.63;17.60;;;;;;;29.01;41.31;102162.41;5072406;28;20374;-77
2021/09/06 09:28:38;;;;;;;23.25;17.50;;;;;;;28.83;41.99;102155.19;5072737;28;20063;-75
2021/09/06 09:31:10;;;;;;;23.38;17.40;;;;;;;28.67;41.90;102164.06;5071036;28;20067;-84
2021/09/06 09:33:47;;;;;;;27.85;17.25;;;;;;;28.72;41.65;102164.47;5072654;28;20059;-85
2021/09/06 09:36:25;;;;;;;21.45;17.45;;;;;;;28.52;42.07;102168.09;5072775;28;20032;-75
2021/09/06 09:38:50;;;;;;;27.77;17.35;;;;;;;28.83;41.55;102172.88;5072551;28;20025;-75
2021/09/06 09:41:16;;;;;;;26.73;16.60;;;;;;;28.66;41.61;102166.09;5072653;28;20146;-75
2021/09/06 09:43:43;;;;;;;24.92;19.33;;;;;;;28.84;41.28;102166.03;5072890;28;20039;-75
2021/09/06 09:46:09;;;;;;;23.98;17.80;;;;;;;28.60;41.74;102169.69;5072583;28;20020;-77
2021/09/06 09:48:35;;;;;;;28.05;17.00;;;;;;;28.97;41.32;102175.69;5072643;28;20118;-86
2021/09/06 09:51:01;;;;;;;21.30;16.40;;;;;;;29.09;41.17;102162.38;5072782;28;20063;-76
2021/09/06 09:53:27;;;;;;;21.48;14.98;;;;;;;29.15;40.68;102166.41;5072679;28;20035;-75
2021/09/06 09:55:53;;;;;;;24.75;17.63;;;;;;;29.40;40.36;102160.69;5072567;28;20020;-76
2021/09/06 09:58:18;;;;;;;22.92;14.77;;;;;;;29.60;40.28;102161.81;5054454;28;20029;-75
2021/09/06 10:00:47;;;;;;;21.02;16.05;;;;;;;29.50;40.59;102157.03;5071833;28;20024;-76
2021/09/06 10:03:15;;;;;;;20.85;14.98;;;;;;;29.43;40.75;102162.69;5071847;28;20471;-76
2021/09/06 10:05:42;;;;;;;19.55;15.35;;;;;;;29.76;40.03;102170.56;5072476;28;20458;-75
2021/09/06 10:08:12;;;;;;;21.58;15.63;;;;;;;29.96;39.49;102161.59;5072231;28;20489;-75
2021/09/06 10:10:40;;;;;;;19.80;15.85;;;;;;;29.93;39.42;102166.06;5072209;28;20479;-75
2021/09/06 10:13:13;;;;;;;20.73;15.07;;;;;;;30.12;39.15;102161.91;5072262;28;20126;-83
2021/09/06 10:15:41;;;;;;;21.70;14.57;;;;;;;30.24;39.17;102157.81;5072302;28;20031;-76
2021/09/06 10:18:14;;;;;;;22.10;13.80;;;;;;;30.13;38.78;102140.97;5072164;28;20070;-76
2021/09/06 10:20:40;;;;;;;20.98;15.13;;;;;;;30.31;38.65;102161.38;5072307;28;20544;-77
2021/09/06 10:23:11;;;;;;;18.70;15.02;;;;;;;30.49;38.49;102151.94;5072265;28;20037;-76
2021/09/06 10:25:39;;;;;;;19.00;13.68;;;;;;;30.67;38.09;102149.78;5071849;28;20383;-76
2021/09/06 10:28:06;;;;;;;17.65;13.75;;;;;;;30.61;38.20;102151.44;5071974;28;20021;-75
2021/09/06 10:30:43;;;;;;;16.40;13.85;;;;;;;30.88;37.82;102157.22;5070472;28;20428;-75
2021/09/06 10:33:35;;;;;;;19.30;14.23;;;;;;;30.78;37.85;102158.94;5071261;28;20364;-76
2021/09/06 10:36:13;;;;;;;27.00;15.15;;;;;;;30.43;38.37;102162.06;5070082;28;20517;-76
2021/09/06 10:39:00;;;;;;;21.63;13.93;;;;;;;30.17;38.18;102155.84;5069644;28;20029;-77
2021/09/06 10:41:26;;;;;;;17.65;13.75;;;;;;;30.00;38.84;102162.38;5070559;28;20020;-75
2021/09/06 10:43:58;;;;;;;18.33;13.70;;;;;;;30.24;38.07;102155.78;5071681;28;20434;-77
2021/09/06 10:46:29;;;;;;;24.70;13.80;;;;;;;29.79;39.09;102152.88;5071640;28;20050;-74
2021/09/06 10:49:01;;;;;;;15.32;12.98;;;;;;;30.21;38.19;102158.63;5068996;28;20052;-74
2021/09/06 10:51:30;;;;;;;26.15;14.00;;;;;;;30.04;38.65;102157.53;5074940;28;20027;-74
2021/09/06 10:53:57;;;;;;;24.67;15.10;;;;;;;30.29;38.59;102158.16;5072891;28;20099;-75
2021/09/06 10:56:31;;;;;;;24.13;13.27;;;;;;;30.37;38.37;102167.34;5075470;28;20027;-74
2021/09/06 10:58:58;;;;;;;22.70;14.05;;;;;;;30.61;37.81;102168.38;5075654;28;20035;-82
2021/09/06 11:01:24;;;;;;;21.33;12.65;;;;;;;30.76;37.81;102169.03;5073803;28;20360;-74
2021/09/06 11:03:52;;;;;;;16.00;11.93;;;;;;;30.99;37.62;102166.38;5075079;28;20016;-78
2021/09/06 11:06:20;;;;;;;16.05;11.63;;;;;;;31.09;37.13;102165.47;5074907;28;20027;-74
2021/09/06 11:08:46;;;;;;;15.50;11.23;;;;;;;31.23;37.26;102163.72;5075000;28;20378;-79